Time;durP1;ratioP1;P1;durP2;ratioP2;P2;SDS_P1;SDS_P2;PMS_P1;PMS_P2;Temp;Humidity;BMP_temperature;BMP_pressure;BME280_temperature;BME280_humidity;BME280_pressure;Samples;Min_cycle;Max_cycle;Signal;HPM_P1;HPM_P2
2023/05/01 00:00:27;;;;;;;4.75;2.97;;;24.20;60.30;;;;;;10556099;28;20389;-23
2023/05/01 00:05:29;;;;;;;5.78;3.28;;;24.10;60.30;;;;;;10550748;28;20067;-23
2023/05/01 00:10:31;;;;;;;4.45;2.80;;;24.10;60.20;;;;;;10557123;28;20659;-24
2023/05/01 00:15:34;;;;;;;;;;;24.00;60.20;;;;;;10562274;28;20043;-24
2023/05/01 00:20:35;;;;;;;5.80;3.17;;;24.00;60.30;;;;;;10550282;28;19968;-24
2023/05/01 00:25:38;;;;;;;3.47;2.50;;;24.00;60.30;;;;;;10554134;28;20052;-23
2023/05/01 00:30:41;;;;;;;7.38;3.42;;;23.90;60.80;;;;;;10558243;28;20055;-24
2023/05/01 00:35:44;;;;;;;3.70;2.60;;;23.90;60.30;;;;;;10539117;28;20132;-24
2023/05/01 00:40:47;;;;;;;4.47;2.47;;;23.90;60.30;;;;;;10551315;28;20135;-22
2023/05/01 00:45:50;;;;;;;4.00;2.42;;;23.80;60.20;;;;;;10554137;28;20438;-24
2023/05/01 00:50:53;;;;;;;3.60;2.60;;;23.80;60.30;;;;;;10561256;28;20105;-22
2023/05/01 00:55:58;;;;;;;3.65;2.60;;;23.70;60.30;;;;;;10552022;28;20050;-23
2023/05/01 01:01:01;;;;;;;3.47;2.83;;;23.70;60.30;;;;;;10543873;28;20057;-24
2023/05/01 01:06:09;;;;;;;5.35;2.90;;;23.60;60.30;;;;;;10556509;28;20051;-23
2023/05/01 01:11:18;;;;;;;5.13;2.63;;;23.60;60.40;;;;;;10566260;28;20044;-24
2023/05/01 01:16:31;;;;;;;3.63;2.40;;;23.50;60.50;;;;;;10565568;28;20052;-24
2023/05/01 01:21:38;;;;;;;4.10;2.22;;;23.50;60.40;;;;;;10570022;28;20467;-23
2023/05/01 01:27:02;;;;;;;4.18;2.70;;;23.50;60.40;;;;;;10564970;28;20055;-24
2023/05/01 01:32:11;;;;;;;3.40;2.47;;;23.40;60.40;;;;;;10562863;28;20048;-24
2023/05/01 01:37:20;;;;;;;2.70;2.10;;;23.40;60.40;;;;;;10568142;28;20507;-24
2023/05/01 01:42:26;;;;;;;4.47;2.47;;;23.40;60.50;;;;;;10572537;28;20501;-24
2023/05/01 01:47:32;;;;;;;2.45;2.00;;;23.30;60.50;;;;;;10570329;28;20044;-24
2023/05/01 01:52:38;;;;;;;3.33;2.28;;;23.30;60.50;;;;;;10564374;28;20052;-24
2023/05/01 01:57:42;;;;;;;4.50;2.80;;;23.20;60.40;;;;;;10556270;28;20135;-25
2023/05/01 02:02:46;;;;;;;3.83;1.83;;;23.20;60.40;;;;;;10572220;28;20052;-24
2023/05/01 02:07:51;;;;;;;5.57;2.20;;;23.20;60.50;;;;;;10563849;28;20059;-24
2023/05/01 02:12:56;;;;;;;2.47;1.90;;;23.20;60.30;;;;;;10553468;28;20048;-24
2023/05/01 02:17:59;;;;;;;3.78;2.30;;;23.10;60.40;;;;;;10548965;28;20122;-23
2023/05/01 02:23:03;;;;;;;3.92;2.13;;;23.10;61.10;;;;;;10571075;28;20136;-23
2023/05/01 02:28:12;;;;;;;2.75;2.05;;;23.10;60.50;;;;;;10567808;28;20150;-24
2023/05/01 02:33:14;;;;;;;3.78;2.17;;;23.00;60.50;;;;;;10566022;28;20468;-24
2023/05/01 02:38:18;;;;;;;3.15;2.15;;;23.00;60.50;;;;;;10559336;28;20404;-24
2023/05/01 02:43:22;;;;;;;3.78;1.77;;;23.00;60.60;;;;;;10561494;28;20055;-23
2023/05/01 02:48:27;;;;;;;2.78;1.85;;;22.90;60.50;;;;;;10563483;28;20401;-24
2023/05/01 02:53:32;;;;;;;2.72;1.73;;;22.90;60.50;;;;;;10561851;28;20131;-24
2023/05/01 02:58:34;;;;;;;2.83;1.67;;;22.90;60.60;;;;;;10565543;28;20065;-22
2023/05/01 03:03:37;;;;;;;4.60;2.00;;;22.90;60.50;;;;;;10563991;28;20126;-24
2023/05/01 03:08:40;;;;;;;3.63;2.08;;;22.80;60.60;;;;;;10575218;28;20058;-23
2023/05/01 03:13:43;;;;;;;2.75;1.60;;;22.80;60.60;;;;;;10575784;28;20070;-23
2023/05/01 03:18:44;;;;;;;3.13;1.98;;;22.80;60.60;;;;;;10561108;28;20044;-24
2023/05/01 03:23:48;;;;;;;3.08;1.95;;;22.70;60.50;;;;;;10559630;28;20077;-24
2023/05/01 03:28:49;;;;;;;2.72;1.73;;;22.70;60.40;;;;;;10574692;28;20604;-25
2023/05/01 03:33:51;;;;;;;4.28;1.60;;;22.70;60.50;;;;;;10572860;28;20115;-24
2023/05/01 03:38:54;;;;;;;2.70;1.73;;;22.70;60.50;;;;;;10559811;28;20160;-24
2023/05/01 03:43:56;;;;;;;2.58;1.83;;;22.60;60.40;;;;;;10567912;28;20048;-24
2023/05/01 03:48:58;;;;;;;2.22;1.40;;;22.60;60.50;;;;;;10566567;28;20488;-24
2023/05/01 03:54:02;;;;;;;2.92;1.55;;;22.60;60.50;;;;;;10559299;28;20035;-24
2023/05/01 03:59:04;;;;;;;3.25;1.88;;;22.60;60.40;;;;;;10567663;28;20062;-24
2023/05/01 04:04:06;;;;;;;;;;;22.50;60.40;;;;;;10565994;28;20089;-23
2023/05/01 04:09:10;;;;;;;2.35;1.75;;;22.50;60.50;;;;;;10553892;28;20372;-24
2023/05/01 04:14:11;;;;;;;3.13;1.73;;;22.50;60.50;;;;;;10551035;28;20044;-24
2023/05/01 04:19:13;;;;;;;2.15;1.65;;;22.40;60.40;;;;;;10552177;28;20123;-23
2023/05/01 04:24:17;;;;;;;2.35;1.42;;;22.40;60.40;;;;;;10549860;28;20047;-24
2023/05/01 04:29:18;;;;;;;2.17;1.48;;;22.40;60.40;;;;;;10547228;28;20119;-24
2023/05/01 04:34:20;;;;;;;2.63;1.55;;;22.40;60.40;;;;;;10555599;28;20126;-24
2023/05/01 04:39:23;;;;;;;2.38;1.67;;;22.30;60.40;;;;;;10540699;28;20074;-23
2023/05/01 04:44:25;;;;;;;2.13;1.40;;;22.30;60.40;;;;;;10545971;28;20489;-24
2023/05/01 04:49:27;;;;;;;1.63;1.30;;;22.30;60.30;;;;;;10551175;28;20131;-24
2023/05/01 04:54:31;;;;;;;1.90;1.35;;;22.30;60.40;;;;;;10549975;28;20090;-23
2023/05/01 04:59:33;;;;;;;2.40;1.40;;;22.30;60.30;;;;;;10562360;28;20079;-24
2023/05/01 05:04:34;;;;;;;2.75;1.52;;;22.20;60.80;;;;;;10554332;28;20154;-24
2023/05/01 05:09:38;;;;;;;1.77;1.25;;;22.20;60.30;;;;;;10561004;28;20054;-24
2023/05/01 05:14:40;;;;;;;1.67;1.10;;;22.20;60.20;;;;;;10552734;28;20063;-24
2023/05/01 05:19:42;;;;;;;2.42;1.40;;;22.20;60.10;;;;;;10559677;28;20071;-23
2023/05/01 05:24:45;;;;;;;1.95;1.48;;;22.20;60.30;;;;;;10558944;28;20059;-23
2023/05/01 05:29:47;;;;;;;3.38;1.20;;;22.20;60.30;;;;;;10557202;28;20559;-23
2023/05/01 05:34:49;;;;;;;2.25;1.23;;;22.20;60.30;;;;;;10559206;28;20092;-23
2023/05/01 05:39:52;;;;;;;2.20;1.38;;;22.10;60.10;;;;;;10564931;28;20050;-22
2023/05/01 05:44:54;;;;;;;2.25;1.33;;;22.10;60.80;;;;;;10564491;28;20078;-24
2023/05/01 05:49:56;;;;;;;1.45;1.05;;;22.10;60.10;;;;;;10569418;28;20052;-23
2023/05/01 05:54:59;;;;;;;1.67;1.40;;;22.10;60.00;;;;;;10573608;28;20100;-24
2023/05/01 06:00:04;;;;;;;2.10;1.10;;;22.10;60.10;;;;;;10569098;28;20145;-23
2023/05/01 06:05:06;;;;;;;1.50;0.80;;;22.00;60.00;;;;;;10567650;28;20051;-22
2023/05/01 06:10:11;;;;;;;1.75;1.23;;;22.10;60.00;;;;;;10572348;28;20143;-23
2023/05/01 06:15:15;;;;;;;1.70;1.25;;;22.00;60.00;;;;;;10573790;28;20466;-23
2023/05/01 06:20:17;;;;;;;2.05;1.02;;;22.10;59.90;;;;;;10577507;28;20043;-23
2023/05/01 06:25:21;;;;;;;1.38;1.13;;;22.00;59.90;;;;;;10573272;28;20211;-23
2023/05/01 06:30:23;;;;;;;1.15;1.00;;;22.00;59.80;;;;;;10573838;28;20100;-23
2023/05/01 06:35:25;;;;;;;1.63;1.05;;;22.00;59.80;;;;;;10573880;28;20044;-21
2023/05/01 06:40:30;;;;;;;1.58;1.10;;;22.00;59.70;;;;;;10559424;28;20425;-23
2023/05/01 06:45:32;;;;;;;2.03;1.02;;;22.00;59.70;;;;;;10555347;28;20377;-24
2023/05/01 06:50:34;;;;;;;2.10;0.98;;;22.00;59.70;;;;;;10572414;28;20052;-24
2023/05/01 06:55:37;;;;;;;2.10;1.08;;;22.00;59.50;;;;;;10569691;28;20156;-25
2023/05/01 07:00:39;;;;;;;2.42;1.33;;;22.00;59.50;;;;;;10565878;28;20122;-23
2023/05/01 07:05:41;;;;;;;;;;;22.00;59.50;;;;;;10543881;28;20373;-24
2023/05/01 07:10:45;;;;;;;1.92;1.20;;;22.00;59.50;;;;;;10556635;28;19929;-23
2023/05/01 07:15:47;;;;;;;2.50;1.40;;;22.00;59.50;;;;;;10554252;28;20049;-23
2023/05/01 07:20:49;;;;;;;2.28;1.52;;;22.00;59.30;;;;;;10552143;28;20101;-23
2023/05/01 07:25:53;;;;;;;1.20;0.95;;;22.00;59.30;;;;;;10553973;28;20153;-23
2023/05/01 07:30:54;;;;;;;2.20;0.95;;;22.10;58.90;;;;;;10553036;28;20132;-23
2023/05/01 07:35:57;;;;;;;2.30;0.82;;;22.10;58.90;;;;;;10566792;28;20165;-22
2023/05/01 07:41:00;;;;;;;;;;;22.10;58.90;;;;;;10555377;28;20050;-23
2023/05/01 07:46:02;;;;;;;1.50;0.82;;;22.00;59.00;;;;;;10548314;28;19963;-23
2023/05/01 07:51:04;;;;;;;1.42;0.98;;;22.00;59.20;;;;;;10561078;28;20071;-24
2023/05/01 07:56:08;;;;;;;2.50;1.27;;;21.90;59.30;;;;;;10547996;28;20054;-24
2023/05/01 08:01:10;;;;;;;2.90;1.30;;;22.00;59.30;;;;;;10536583;28;20047;-24
2023/05/01 08:06:12;;;;;;;;;;;22.00;59.40;;;;;;10544607;28;20592;-22
2023/05/01 08:11:15;;;;;;;2.87;2.13;;;21.90;59.30;;;;;;10545262;28;20039;-24
2023/05/01 08:16:18;;;;;;;2.80;2.30;;;21.80;59.80;;;;;;10560117;28;20055;-24
2023/05/01 08:21:20;;;;;;;18.05;5.00;;;19.80;70.40;;;;;;10561804;28;20121;-23
2023/05/01 08:26:23;;;;;;;;;;;19.70;59.90;;;;;;10549233;28;20122;-24
2023/05/01 08:31:25;;;;;;;8.07;3.05;;;20.40;64.00;;;;;;10535683;28;20066;-23
2023/05/01 08:36:27;;;;;;;3.55;2.20;;;19.80;69.80;;;;;;10559778;28;20133;-23
2023/05/01 08:41:32;;;;;;;17.90;6.55;;;19.70;73.10;;;;;;10553285;28;20110;-24
2023/05/01 08:46:44;;;;;;;8.75;3.90;;;20.50;64.70;;;;;;10540525;28;20055;-22
2023/05/01 08:51:48;;;;;;;6.13;3.38;;;20.30;67.10;;;;;;10551742;28;20082;-23
2023/05/01 08:56:53;;;;;;;2.95;2.08;;;20.40;66.10;;;;;;10546427;28;20496;-24
2023/05/01 09:01:56;;;;;;;3.33;1.60;;;20.50;67.10;;;;;;10551394;28;20044;-23
2023/05/01 09:07:00;;;;;;;3.40;1.95;;;21.10;63.70;;;;;;10537585;28;20518;-22
2023/05/01 09:12:12;;;;;;;4.28;2.50;;;21.30;62.10;;;;;;10531900;28;20484;-23
2023/05/01 09:17:15;;;;;;;8.57;4.68;;;21.00;64.20;;;;;;10548495;28;20064;-24
2023/05/01 09:22:18;;;;;;;10.48;3.92;;;20.30;67.10;;;;;;10550121;28;20443;-24
2023/05/01 09:27:22;;;;;;;8.52;2.88;;;20.50;67.90;;;;;;10568494;28;20442;-23
2023/05/01 09:32:26;;;;;;;11.27;5.20;;;19.30;75.10;;;;;;10550229;28;20113;-22
2023/05/01 09:37:29;;;;;;;11.45;5.30;;;18.10;84.40;;;;;;10571476;28;20052;-25
2023/05/01 09:42:34;;;;;;;7.18;3.33;;;18.00;87.20;;;;;;10550128;28;20055;-28
2023/05/01 09:47:36;;;;;;;4.95;2.92;;;17.50;90.70;;;;;;10553615;28;20056;-24
2023/05/01 09:52:38;;;;;;;12.75;5.15;;;17.30;92.30;;;;;;10568498;28;20411;-24
2023/05/01 09:57:42;;;;;;;5.07;2.83;;;17.20;92.40;;;;;;10559168;28;20043;-24
2023/05/01 10:02:46;;;;;;;7.47;5.32;;;17.10;93.90;;;;;;10565770;28;20077;-24
2023/05/01 10:07:59;;;;;;;5.13;2.35;;;16.70;97.20;;;;;;10572625;28;20530;-24
2023/05/01 10:13:14;;;;;;;4.68;2.88;;;18.60;89.50;;;;;;10571486;28;20132;-24
2023/05/01 10:18:18;;;;;;;3.63;2.70;;;19.50;80.20;;;;;;10563294;28;20071;-24
2023/05/01 10:23:20;;;;;;;7.28;3.33;;;20.70;69.90;;;;;;10569254;28;20096;-24
2023/05/01 10:28:27;;;;;;;9.30;3.40;;;19.00;80.10;;;;;;10566651;28;20040;-24
2023/05/01 10:33:29;;;;;;;3.97;2.65;;;20.20;73.90;;;;;;10566525;28;20142;-24
2023/05/01 10:38:33;;;;;;;4.22;2.70;;;19.60;76.80;;;;;;10566489;28;20564;-24
2023/05/01 10:43:36;;;;;;;3.67;2.15;;;19.80;76.00;;;;;;10572333;28;20062;-24
2023/05/01 10:48:57;;;;;;;5.68;4.00;;;19.60;77.50;;;;;;10564651;28;20100;-24
2023/05/01 10:54:22;;;;;;;6.13;3.15;;;19.50;77.90;;;;;;10565061;28;20066;-24
2023/05/01 10:59:26;;;;;;;5.28;2.95;;;20.50;70.70;;;;;;10556948;28;20046;-24
2023/05/01 11:04:49;;;;;;;7.38;3.40;;;20.50;71.80;;;;;;10570337;28;20055;-23
2023/05/01 11:09:56;;;;;;;2.40;1.70;;;20.90;68.10;;;;;;10554355;28;20040;-23
2023/05/01 11:15:07;;;;;;;3.35;2.03;;;21.40;65.00;;;;;;10553789;28;20466;-24
2023/05/01 11:20:10;;;;;;;5.85;2.63;;;21.30;65.10;;;;;;10563571;28;20255;-24
2023/05/01 11:25:20;;;;;;;4.80;2.65;;;21.40;65.20;;;;;;10572077;28;20126;-23
2023/05/01 11:30:24;;;;;;;10.18;4.68;;;20.80;68.90;;;;;;10553257;28;20130;-22
2023/05/01 11:35:28;;;;;;;10.95;4.68;;;19.30;74.60;;;;;;10560462;28;20119;-23
2023/05/01 11:40:32;;;;;;;8.98;4.68;;;19.20;74.80;;;;;;10551359;28;20400;-24
2023/05/01 11:45:37;;;;;;;5.93;4.07;;;18.20;84.10;;;;;;10555132;28;20052;-22
2023/05/01 11:50:39;;;;;;;8.68;4.90;;;18.80;79.10;;;;;;10568746;28;20777;-23
2023/05/01 11:55:41;;;;;;;14.02;6.03;;;18.30;76.60;;;;;;10559241;28;20415;-23
2023/05/01 12:00:44;;;;;;;9.02;4.70;;;17.50;81.10;;;;;;10547585;28;20441;-24
2023/05/01 12:05:48;;;;;;;13.25;5.10;;;17.70;83.70;;;;;;10558601;28;20049;-24
2023/05/01 12:10:52;;;;;;;8.73;4.95;;;18.10;77.00;;;;;;10562676;28;20142;-24
2023/05/01 12:15:56;;;;;;;18.77;4.55;;;17.70;75.20;;;;;;10556602;28;20040;-24
2023/05/01 12:21:16;;;;;;;6.97;4.38;;;18.40;71.00;;;;;;10567950;28;20086;-23
2023/05/01 12:26:22;;;;;;;6.18;4.20;;;18.80;76.60;;;;;;10562150;28;20548;-25
2023/05/01 12:31:27;;;;;;;11.50;5.30;;;18.30;76.90;;;;;;10572333;28;20036;-25
2023/05/01 12:36:32;;;;;;;9.77;4.75;;;17.50;78.80;;;;;;10580252;28;20044;-24
2023/05/01 12:41:39;;;;;;;10.02;4.70;;;18.20;79.00;;;;;;10560987;28;20104;-24
2023/05/01 12:46:43;;;;;;;10.60;4.95;;;18.70;89.70;;;;;;10485695;28;20048;-24
2023/05/01 12:51:47;;;;;;;7.25;4.60;;;18.50;73.90;;;;;;10483837;28;20055;-25
2023/05/01 12:56:49;;;;;;;10.68;6.28;;;18.70;82.20;;;;;;10485134;28;20048;-24
2023/05/01 13:02:00;;;;;;;9.88;6.65;;;17.90;73.30;;;;;;10495226;28;20064;-24
2023/05/01 13:07:02;;;;;;;13.18;6.35;;;17.70;77.80;;;;;;10482838;28;20040;-24
2023/05/01 13:12:05;;;;;;;;;;;18.20;79.00;;;;;;10481488;28;20088;-25
2023/05/01 13:17:09;;;;;;;12.55;6.05;;;19.00;71.70;;;;;;10479604;28;19924;-24
2023/05/01 13:22:11;;;;;;;10.07;6.20;;;19.50;68.40;;;;;;10491003;28;20063;-24
2023/05/01 13:27:13;;;;;;;7.07;6.03;;;19.60;66.90;;;;;;10479964;28;20697;-24
2023/05/01 13:32:17;;;;;;;11.90;6.15;;;20.30;67.00;;;;;;10479546;28;20048;-24
2023/05/01 13:37:20;;;;;;;7.47;5.65;;;20.80;63.10;;;;;;10478565;28;20128;-24
2023/05/01 13:42:23;;;;;;;6.75;5.25;;;20.70;63.60;;;;;;10498294;28;20043;-24
2023/05/01 13:47:27;;;;;;;6.25;2.35;;;21.10;79.80;;;;;;10545724;28;20067;-25
2023/05/01 13:52:28;;;;;;;2.50;1.48;;;21.50;80.80;;;;;;10551356;28;20093;-24
2023/05/01 13:57:31;;;;;;;9.63;5.30;;;22.60;70.60;;;;;;10561855;28;20141;-24
2023/05/01 14:02:37;;;;;;;2.55;1.88;;;22.40;66.40;;;;;;10561861;28;20047;-24
2023/05/01 14:07:48;;;;;;;2.78;2.05;;;22.60;66.80;;;;;;10552068;28;20043;-24
2023/05/01 14:12:50;;;;;;;2.92;1.50;;;22.50;66.20;;;;;;10561992;28;20110;-23
2023/05/01 14:17:54;;;;;;;;;;;22.80;65.60;;;;;;10570645;28;20472;-23
2023/05/01 14:22:55;;;;;;;13.48;8.73;;;22.40;60.60;;;;;;10561119;28;20010;-22
2023/05/01 14:28:00;;;;;;;15.27;10.13;;;22.40;62.40;;;;;;10567157;28;20079;-23
2023/05/01 14:33:04;;;;;;;2.08;1.40;;;21.90;66.10;;;;;;10553568;28;20059;-22
2023/05/01 14:38:10;;;;;;;5.93;3.63;;;22.50;64.20;;;;;;10572723;28;20131;-23
2023/05/01 14:43:17;;;;;;;9.93;5.65;;;23.20;63.90;;;;;;10569855;28;20449;-24
2023/05/01 14:48:23;;;;;;;3.15;2.63;;;23.50;61.10;;;;;;10561640;28;20054;-23
2023/05/01 14:53:26;;;;;;;14.95;9.05;;;23.00;62.50;;;;;;10563074;28;20048;-24
2023/05/01 14:58:29;;;;;;;5.05;2.83;;;23.00;61.40;;;;;;10556979;28;20050;-23
2023/05/01 15:03:39;;;;;;;7.25;3.33;;;23.10;63.70;;;;;;10570246;28;20043;-25
2023/05/01 15:08:41;;;;;;;10.25;6.50;;;23.40;60.10;;;;;;10549800;28;20048;-24
2023/05/01 15:13:44;;;;;;;;;;;23.60;60.40;;;;;;10564018;28;20047;-24
2023/05/01 15:18:47;;;;;;;3.72;2.13;;;23.80;60.50;;;;;;10558625;28;19977;-24
2023/05/01 15:23:49;;;;;;;4.88;2.55;;;24.00;59.70;;;;;;10548838;28;20051;-24
2023/05/01 15:28:50;;;;;;;;;;;24.30;57.30;;;;;;10560508;28;20144;-24
2023/05/01 15:33:54;;;;;;;16.10;9.17;;;23.60;60.00;;;;;;10550980;28;20358;-24
2023/05/01 15:38:56;;;;;;;7.95;6.28;;;23.90;59.90;;;;;;10560675;28;20568;-24
2023/05/01 15:43:58;;;;;;;13.18;8.77;;;24.20;59.40;;;;;;10556361;28;20051;-23
2023/05/01 15:49:01;;;;;;;;;;;23.90;58.90;;;;;;10560976;28;20040;-23
2023/05/01 15:54:03;;;;;;;11.02;7.00;;;24.40;58.90;;;;;;10563426;28;19970;-24
2023/05/01 15:59:05;;;;;;;6.18;3.72;;;24.30;55.80;;;;;;10558416;28;20096;-26
2023/05/01 16:04:09;;;;;;;6.90;5.10;;;24.70;57.90;;;;;;10564987;28;20538;-24
2023/05/01 16:09:11;;;;;;;2.75;2.03;;;24.20;57.40;;;;;;10551013;28;20191;-24
2023/05/01 16:14:15;;;;;;;6.35;4.32;;;24.70;56.70;;;;;;10544022;28;20052;-24
2023/05/01 16:19:19;;;;;;;7.60;4.32;;;24.30;56.40;;;;;;10562563;28;20040;-23
2023/05/01 16:24:21;;;;;;;11.48;6.20;;;25.00;58.40;;;;;;10537700;28;20373;-23
2023/05/01 16:29:23;;;;;;;3.50;2.47;;;24.70;55.90;;;;;;10567815;28;20067;-24
2023/05/01 16:34:27;;;;;;;6.88;3.78;;;25.10;56.90;;;;;;10562145;28;20134;-25
2023/05/01 16:39:28;;;;;;;7.82;4.93;;;25.50;56.20;;;;;;10543698;28;20075;-25
2023/05/01 16:44:30;;;;;;;;;;;25.60;54.90;;;;;;10557101;28;20143;-24
2023/05/01 16:49:35;;;;;;;4.38;2.83;;;25.30;55.70;;;;;;10547759;28;19924;-25
2023/05/01 16:54:37;;;;;;;10.80;6.07;;;25.30;55.20;;;;;;10550762;28;20048;-28
2023/05/01 16:59:39;;;;;;;;;;;25.30;53.60;;;;;;10561113;28;20508;-24
2023/05/01 17:04:42;;;;;;;9.13;5.68;;;25.20;56.40;;;;;;10537089;28;20324;-23
2023/05/01 17:09:45;;;;;;;21.15;12.07;;;25.30;56.10;;;;;;10556008;28;20471;-24
2023/05/01 17:14:47;;;;;;;7.85;5.50;;;24.00;59.30;;;;;;10557864;28;20456;-23
2023/05/01 17:19:51;;;;;;;24.58;16.65;;;24.50;60.20;;;;;;10563806;28;20044;-23
2023/05/01 17:24:53;;;;;;;4.80;3.55;;;24.60;56.10;;;;;;10551943;28;20054;-23
2023/05/01 17:29:55;;;;;;;;;;;24.80;60.80;;;;;;10559428;28;20052;-24
2023/05/01 17:34:58;;;;;;;5.72;4.10;;;24.40;59.70;;;;;;10563325;28;20048;-24
2023/05/01 17:40:00;;;;;;;5.78;3.17;;;24.80;62.60;;;;;;10562485;28;20055;-31
2023/05/01 17:45:03;;;;;;;5.35;2.78;;;25.60;56.40;;;;;;10559600;28;20055;-23
2023/05/01 17:50:07;;;;;;;7.38;4.63;;;25.80;55.20;;;;;;10571729;28;20059;-24
2023/05/01 17:55:10;;;;;;;9.43;6.63;;;25.40;56.00;;;;;;10565118;28;20062;-22
2023/05/01 18:00:12;;;;;;;6.78;3.80;;;25.00;56.70;;;;;;10560060;28;20479;-24
2023/05/01 18:05:16;;;;;;;18.10;10.57;;;25.50;55.60;;;;;;10563391;28;20055;-24
2023/05/01 18:10:18;;;;;;;5.72;3.20;;;24.20;56.00;;;;;;10544567;28;20488;-24
2023/05/01 18:15:19;;;;;;;6.90;4.05;;;25.50;56.50;;;;;;10551332;28;20060;-24
2023/05/01 18:20:23;;;;;;;;;;;25.50;55.50;;;;;;10549566;28;20074;-24
2023/05/01 18:25:25;;;;;;;27.30;15.85;;;25.60;55.40;;;;;;10565779;28;20326;-26
2023/05/01 18:30:26;;;;;;;27.15;16.67;;;24.40;56.00;;;;;;10570905;28;20067;-24
2023/05/01 18:35:29;;;;;;;;;;;23.60;60.40;;;;;;10554134;28;20059;-24
2023/05/01 18:40:32;;;;;;;6.90;4.28;;;24.00;60.90;;;;;;10567131;28;19947;-25
2023/05/01 18:45:33;;;;;;;7.40;4.20;;;25.00;58.70;;;;;;10563381;28;20087;-24
2023/05/01 18:50:36;;;;;;;;;;;24.40;60.60;;;;;;10575078;28;20742;-24
2023/05/01 18:55:39;;;;;;;22.27;9.80;;;24.10;60.10;;;;;;10566430;28;19928;-24
2023/05/01 19:00:41;;;;;;;13.27;7.03;;;24.10;59.70;;;;;;10563632;28;20052;-24
2023/05/01 19:05:44;;;;;;;24.95;14.15;;;23.50;64.10;;;;;;10549666;28;20091;-24
2023/05/01 19:10:46;;;;;;;34.55;20.40;;;20.90;73.20;;;;;;10551394;28;20047;-24
2023/05/01 19:15:48;;;;;;;43.55;23.25;;;19.50;88.00;;;;;;10554503;28;20139;-24
2023/05/01 19:20:51;;;;;;;25.08;13.05;;;19.10;87.00;;;;;;10559852;28;20138;-24
2023/05/01 19:25:53;;;;;;;36.83;21.75;;;19.00;98.50;;;;;;10560702;28;20070;-24
2023/05/01 19:30:55;;;;;;;21.98;13.07;;;19.00;97.10;;;;;;10562862;28;20075;-23
2023/05/01 19:35:58;;;;;;;;;;;21.50;82.00;;;;;;10564217;28;20039;-24
2023/05/01 19:41:00;;;;;;;8.10;4.90;;;22.40;83.00;;;;;;10562080;28;20015;-25
2023/05/01 19:46:02;;;;;;;13.07;8.32;;;22.60;77.00;;;;;;10556822;28;20051;-24
2023/05/01 19:51:05;;;;;;;19.85;11.48;;;22.10;81.30;;;;;;10554159;28;20142;-25
2023/05/01 19:56:09;;;;;;;15.27;8.85;;;20.50;82.70;;;;;;10550667;28;20407;-24
2023/05/01 20:01:12;;;;;;;21.90;13.15;;;19.80;93.40;;;;;;10552685;28;20047;-24
2023/05/01 20:06:15;;;;;;;6.38;4.85;;;19.70;94.30;;;;;;10560275;28;20173;-23
2023/05/01 20:11:17;;;;;;;8.48;5.13;;;21.90;82.50;;;;;;10553861;28;20543;-24
2023/05/01 20:16:19;;;;;;;13.75;5.95;;;21.50;87.10;;;;;;10560099;28;20044;-24
2023/05/01 20:21:22;;;;;;;15.00;9.73;;;19.00;96.90;;;;;;10556122;28;20063;-24
2023/05/01 20:26:24;;;;;;;7.28;4.53;;;20.00;80.00;;;;;;10551896;28;20087;-25
2023/05/01 20:31:26;;;;;;;7.55;5.07;;;20.90;91.10;;;;;;10562005;28;20162;-24
2023/05/01 20:36:29;;;;;;;9.75;6.07;;;22.00;81.40;;;;;;10549744;28;20043;-24
2023/05/01 20:41:32;;;;;;;7.72;4.95;;;21.90;80.00;;;;;;10554073;28;20092;-24
2023/05/01 20:46:34;;;;;;;14.27;8.93;;;21.80;81.50;;;;;;10539927;28;20541;-23
2023/05/01 20:51:37;;;;;;;;;;;21.20;66.80;;;;;;10555425;28;20458;-24
2023/05/01 20:56:39;;;;;;;7.85;5.25;;;21.40;82.40;;;;;;10560563;28;19973;-24
2023/05/01 21:01:41;;;;;;;6.88;4.57;;;20.70;90.10;;;;;;10550101;28;20101;-23
2023/05/01 21:06:44;;;;;;;9.75;5.43;;;21.90;78.90;;;;;;10552881;28;20075;-25
2023/05/01 21:11:46;;;;;;;7.05;4.80;;;22.00;77.70;;;;;;10557384;28;20048;-22
2023/05/01 21:16:48;;;;;;;14.43;10.32;;;21.40;81.60;;;;;;10567266;28;20047;-24
2023/05/01 21:21:53;;;;;;;12.05;8.07;;;21.60;72.60;;;;;;10574115;28;20482;-25
2023/05/01 21:26:54;;;;;;;8.63;5.13;;;21.30;71.00;;;;;;10554371;28;20035;-25
2023/05/01 21:31:56;;;;;;;9.65;5.90;;;22.10;75.10;;;;;;10575988;28;20545;-25
2023/05/01 21:36:59;;;;;;;6.63;5.03;;;23.10;68.60;;;;;;10566585;28;20044;-24
2023/05/01 21:42:03;;;;;;;6.53;4.40;;;23.30;66.70;;;;;;10556327;28;20078;-23
2023/05/01 21:47:05;;;;;;;7.97;4.80;;;23.30;66.10;;;;;;10549919;28;20128;-22
2023/05/01 21:52:08;;;;;;;;;;;23.20;66.10;;;;;;10562843;28;20040;-24
2023/05/01 21:57:10;;;;;;;7.78;5.60;;;22.50;69.90;;;;;;10568872;28;20371;-24
2023/05/01 22:02:12;;;;;;;12.52;7.03;;;22.20;70.50;;;;;;10570980;28;20044;-24
2023/05/01 22:07:15;;;;;;;11.40;8.52;;;21.60;69.30;;;;;;10573000;28;20609;-24
2023/05/01 22:12:17;;;;;;;10.07;5.85;;;19.80;78.50;;;;;;10564503;28;20522;-25
2023/05/01 22:17:22;;;;;;;12.75;7.10;;;21.30;77.30;;;;;;10566452;28;20482;-23
2023/05/01 22:22:26;;;;;;;13.15;8.02;;;21.70;66.20;;;;;;10570955;28;20051;-24
2023/05/01 22:27:28;;;;;;;13.70;6.80;;;20.90;78.00;;;;;;10560883;28;20131;-23
2023/05/01 22:32:29;;;;;;;;;;;20.70;83.80;;;;;;10572527;28;20051;-23
2023/05/01 22:37:33;;;;;;;13.83;7.73;;;21.00;78.20;;;;;;10563371;28;20411;-23
2023/05/01 22:42:34;;;;;;;11.95;7.65;;;21.40;76.50;;;;;;10562441;28;20136;-23
2023/05/01 22:47:36;;;;;;;11.48;6.88;;;19.60;91.40;;;;;;10567774;28;20052;-23
2023/05/01 22:52:40;;;;;;;10.18;6.65;;;18.90;92.00;;;;;;10561919;28;20048;-23
2023/05/01 22:57:41;;;;;;;12.43;6.82;;;19.10;90.90;;;;;;10566513;28;20059;-23
2023/05/01 23:02:43;;;;;;;11.35;6.97;;;19.80;87.10;;;;;;10556540;28;20130;-23
2023/05/01 23:07:47;;;;;;;12.10;7.28;;;18.90;94.00;;;;;;10557901;28;20475;-23
2023/05/01 23:12:49;;;;;;;13.13;7.32;;;19.50;89.60;;;;;;10564124;28;20440;-23
2023/05/01 23:17:51;;;;;;;8.70;5.20;;;16.40;99.80;;;;;;10557228;28;20136;-23
2023/05/01 23:22:54;;;;;;;;;;;20.00;88.90;;;;;;10551029;28;20070;-23
2023/05/01 23:27:56;;;;;;;10.48;5.45;;;20.70;80.40;;;;;;10564977;28;19927;-23
2023/05/01 23:32:59;;;;;;;9.05;5.97;;;21.30;76.80;;;;;;10572324;28;20089;-24
2023/05/01 23:38:02;;;;;;;8.20;4.78;;;21.40;73.80;;;;;;10561825;28;20520;-24
2023/05/01 23:43:04;;;;;;;7.95;5.18;;;20.70;79.20;;;;;;10560727;28;20048;-22
2023/05/01 23:48:06;;;;;;;9.07;4.97;;;20.50;80.50;;;;;;10562806;28;20083;-28
2023/05/01 23:53:10;;;;;;;11.30;6.40;;;20.30;79.60;;;;;;10567665;28;20134;-24
2023/05/01 23:58:12;;;;;;;9.85;5.78;;;20.60;79.50;;;;;;10565605;28;20052;-23
